createdAt,value
2017-05-15T00:01:12.178Z,96503.37
2017-05-15T00:03:38.375Z,96500.42
2017-05-15T00:06:05.270Z,96504.52
2017-05-15T00:08:31.429Z,96504.66
2017-05-15T00:10:57.580Z,96504.89
2017-05-15T00:13:24.537Z,96506.58
2017-05-15T00:15:51.453Z,96511.31
2017-05-15T00:18:17.613Z,96515.72
2017-05-15T00:20:44.497Z,96511.97
2017-05-15T00:23:10.653Z,96510.28
2017-05-15T00:25:36.834Z,96515.48
2017-05-15T00:28:03.717Z,96523.17
2017-05-15T00:30:29.878Z,96518.91
2017-05-15T00:32:57.170Z,96512.11
2017-05-15T00:35:24.053Z,96511.66
2017-05-15T00:37:50.281Z,96508.20
2017-05-15T00:40:16.405Z,96511.81
2017-05-15T00:42:42.553Z,96509.52
2017-05-15T00:45:08.735Z,96503.80
2017-05-15T00:47:34.882Z,96507.80
2017-05-15T00:50:01.807Z,96515.53
2017-05-15T00:52:27.967Z,96517.14
2017-05-15T00:54:54.897Z,96515.80
2017-05-15T00:57:21.043Z,96511.55
2017-05-15T00:59:48.001Z,96520.45
2017-05-15T01:02:14.885Z,96519.52
2017-05-15T01:04:41.032Z,96526.56
2017-05-15T01:07:07.173Z,96525.91
2017-05-15T01:09:33.346Z,96527.55
2017-05-15T01:12:00.265Z,96527.72
2017-05-15T01:14:26.452Z,96522.84
2017-05-15T01:16:52.625Z,96523.98
2017-05-15T01:19:18.854Z,96520.75
2017-05-15T01:21:45.005Z,96523.47
2017-05-15T01:24:11.156Z,96525.11
2017-05-15T01:26:38.044Z,96532.11
2017-05-15T01:29:04.239Z,96528.37
2017-05-15T01:31:30.466Z,96524.89
2017-05-15T01:33:56.654Z,96530.86
2017-05-15T01:36:22.829Z,96531.71
2017-05-15T01:38:48.978Z,96532.77
2017-05-15T01:41:15.153Z,96540.97
2017-05-15T01:43:41.325Z,96542.86
2017-05-15T01:46:08.217Z,96544.30
2017-05-15T01:48:34.425Z,96545.59
2017-05-15T01:51:01.317Z,96548.59
2017-05-15T01:53:27.525Z,96554.32
2017-05-15T01:55:53.846Z,96554.87
2017-05-15T01:58:20.777Z,96547.13
2017-05-15T02:00:46.941Z,96545.95
2017-05-15T02:03:13.141Z,96549.11
2017-05-15T02:05:39.364Z,96555.37
2017-05-15T02:08:05.704Z,96559.20
2017-05-15T02:10:32.013Z,96552.78
2017-05-15T02:12:58.190Z,96550.23
2017-05-15T02:15:24.516Z,96553.30
2017-05-15T02:17:50.688Z,96546.91
2017-05-15T02:20:16.881Z,96560.91
2017-05-15T02:22:43.032Z,96558.64
2017-05-15T02:25:09.975Z,96558.05
2017-05-15T02:27:36.129Z,96559.88
2017-05-15T02:30:03.159Z,96564.45
2017-05-15T02:32:30.083Z,96562.98
2017-05-15T02:34:56.246Z,96561.77
2017-05-15T02:37:26.447Z,96568.83
2017-05-15T02:39:52.653Z,96564.95
2017-05-15T02:42:18.810Z,96571.93
2017-05-15T02:44:45.005Z,96570.89
2017-05-15T02:47:11.182Z,96570.80
2017-05-15T02:49:37.361Z,96567.27
2017-05-15T02:52:03.645Z,96568.91
2017-05-15T02:54:29.838Z,96570.97
2017-05-15T02:56:56.055Z,96567.19
2017-05-15T02:59:30.628Z,96564.91
2017-05-15T03:01:57.841Z,96567.09
2017-05-15T03:04:24.043Z,96572.89
2017-05-15T03:06:50.185Z,96569.70
2017-05-15T03:09:16.358Z,96573.98
2017-05-15T03:11:42.531Z,96570.58
2017-05-15T03:14:08.687Z,96574.91
2017-05-15T03:16:35.663Z,96578.82
2017-05-15T03:19:01.818Z,96586.05
2017-05-15T03:21:28.003Z,96583.94
2017-05-15T03:23:54.944Z,96576.80
2017-05-15T03:26:21.126Z,96581.59
2017-05-15T03:28:48.181Z,96583.39
2017-05-15T03:31:15.099Z,96584.73
2017-05-15T03:33:42.385Z,96586.42
2017-05-15T03:36:08.581Z,96591.84
2017-05-15T03:38:35.489Z,96602.09
2017-05-15T03:41:01.703Z,96597.64
2017-05-15T03:43:27.895Z,96598.59
2017-05-15T03:45:54.056Z,96597.39
2017-05-15T03:48:20.245Z,96597.34
2017-05-15T03:50:46.406Z,96598.27
2017-05-15T03:53:13.356Z,96608.19
2017-05-15T03:55:40.345Z,96606.12
2017-05-15T03:58:06.605Z,96607.47
2017-05-15T04:00:32.965Z,96610.05
2017-05-15T04:02:59.903Z,96607.28
2017-05-15T04:05:26.078Z,96615.56
2017-05-15T04:07:52.305Z,96608.50
2017-05-15T04:10:18.471Z,96608.29
2017-05-15T04:12:44.621Z,96615.19
2017-05-15T04:15:10.843Z,96617.24
2017-05-15T04:17:37.003Z,96618.21
2017-05-15T04:20:03.166Z,96617.31
2017-05-15T04:22:30.119Z,96621.66
2017-05-15T04:24:57.002Z,96617.36
2017-05-15T04:27:23.179Z,96620.73
2017-05-15T04:29:49.521Z,96627.24
2017-05-15T04:32:15.682Z,96628.30
2017-05-15T04:34:42.945Z,96634.73
2017-05-15T04:37:09.146Z,96629.66
2017-05-15T04:39:36.099Z,96631.46
2017-05-15T04:42:03.009Z,96633.02
2017-05-15T04:44:29.174Z,96637.43
2017-05-15T04:46:56.057Z,96633.53
2017-05-15T04:49:22.960Z,96635.84
2017-05-15T04:51:50.600Z,96632.90
2017-05-15T04:54:16.875Z,96641.14
2017-05-15T04:56:43.847Z,96642.39
2017-05-15T04:59:10.903Z,96641.63
2017-05-15T05:01:37.115Z,96640.00
2017-05-15T05:04:04.077Z,96646.69
2017-05-15T05:06:31.076Z,96648.91
2017-05-15T05:08:57.275Z,96649.88
2017-05-15T05:11:24.207Z,96653.64
2017-05-15T05:13:50.401Z,96659.81
2017-05-15T05:16:16.633Z,96660.16
2017-05-15T05:18:42.809Z,96656.80
2017-05-15T05:21:21.295Z,96656.83
2017-05-15T05:24:09.383Z,96668.09
2017-05-15T05:26:50.432Z,96668.82
2017-05-15T05:29:29.801Z,96672.53
2017-05-15T05:32:16.914Z,96668.06
2017-05-15T05:35:01.941Z,96671.36
2017-05-15T05:37:37.963Z,96669.85
2017-05-15T05:40:19.869Z,96669.78
2017-05-15T05:42:59.674Z,96668.03
2017-05-15T05:45:25.869Z,96673.80
2017-05-15T05:47:52.808Z,96672.22
2017-05-15T05:50:19.709Z,96669.85
2017-05-15T05:52:45.878Z,96675.14
2017-05-15T05:55:33.853Z,96672.01
2017-05-15T05:58:00.026Z,96673.31
2017-05-15T06:00:38.506Z,96670.58
2017-05-15T06:03:16.923Z,96665.58
2017-05-15T06:05:55.323Z,96667.91
2017-05-15T06:08:36.792Z,96675.94
2017-05-15T06:11:24.789Z,96682.84
2017-05-15T06:14:03.142Z,96681.04
2017-05-15T06:16:55.010Z,96686.91
2017-05-15T06:19:21.861Z,96687.61
2017-05-15T06:21:48.049Z,96696.59
2017-05-15T06:24:26.620Z,96690.88
2017-05-15T06:26:53.722Z,96695.34
2017-05-15T06:29:19.838Z,96697.61
2017-05-15T06:31:46.771Z,96697.37
2017-05-15T06:34:13.589Z,96704.83
2017-05-15T06:36:39.687Z,96701.48
2017-05-15T06:39:31.993Z,96701.78
2017-05-15T06:42:11.133Z,96704.12
2017-05-15T06:44:37.221Z,96703.83
2017-05-15T06:47:04.929Z,96706.19
2017-05-15T06:49:36.773Z,96707.37
2017-05-15T06:52:03.622Z,96716.33
2017-05-15T06:54:30.888Z,96713.92
2017-05-15T06:56:57.736Z,96710.83
2017-05-15T06:59:24.606Z,96713.31
2017-05-15T07:01:50.693Z,96717.54
2017-05-15T07:04:16.779Z,96724.93
2017-05-15T07:06:48.765Z,96722.17
2017-05-15T07:09:14.946Z,96720.73
2017-05-15T07:11:41.840Z,96725.80
2017-05-15T07:14:09.002Z,96726.61
2017-05-15T07:16:37.291Z,96733.42
2017-05-15T07:19:04.952Z,96732.39
2017-05-15T07:21:31.170Z,96733.25
2017-05-15T07:23:58.347Z,96734.44
2017-05-15T07:26:24.522Z,96731.00
2017-05-15T07:28:51.433Z,96743.71
2017-05-15T07:31:17.590Z,96744.85
2017-05-15T07:33:46.273Z,96746.84
2017-05-15T07:36:12.461Z,96746.16
2017-05-15T07:38:38.797Z,96755.41
2017-05-15T07:41:05.005Z,96755.52
2017-05-15T07:43:31.189Z,96751.42
2017-05-15T07:45:57.395Z,96747.84
2017-05-15T07:48:23.572Z,96749.08
2017-05-15T07:50:49.776Z,96749.93
2017-05-15T07:53:15.982Z,96745.89
2017-05-15T07:55:42.182Z,96742.97
2017-05-15T07:58:08.446Z,96745.03
2017-05-15T08:00:34.734Z,96745.56
2017-05-15T08:03:00.983Z,96746.89
2017-05-15T08:05:27.157Z,96751.29
2017-05-15T08:07:53.354Z,96740.58
2017-05-15T08:10:19.542Z,96740.18
2017-05-15T08:12:45.799Z,96740.04
2017-05-15T08:15:16.638Z,96745.55
2017-05-15T08:17:43.632Z,96742.13
2017-05-15T08:20:10.577Z,96750.29
2017-05-15T08:22:37.502Z,96749.59
2017-05-15T08:25:03.681Z,96755.63
2017-05-15T08:27:29.936Z,96750.31
2017-05-15T08:29:56.147Z,96752.09
2017-05-15T08:32:22.428Z,96750.12
2017-05-15T08:34:48.651Z,96752.05
2017-05-15T08:37:14.841Z,96750.53
2017-05-15T08:39:42.194Z,96751.78
2017-05-15T08:42:10.203Z,96756.11
2017-05-15T08:44:36.389Z,96752.77
2017-05-15T08:47:03.358Z,96747.32
2017-05-15T08:49:32.774Z,96756.36
2017-05-15T08:51:59.873Z,96758.78
2017-05-15T08:54:26.066Z,96755.32
2017-05-15T08:56:59.709Z,96750.45
2017-05-15T08:59:25.885Z,96744.98
2017-05-15T09:01:53.529Z,96760.43
2017-05-15T09:04:19.721Z,96753.78
2017-05-15T09:06:45.897Z,96757.66
2017-05-15T09:09:12.151Z,96756.55
2017-05-15T09:11:39.855Z,96752.52
2017-05-15T09:14:06.269Z,96753.48
2017-05-15T09:16:32.434Z,96742.50
2017-05-15T09:18:58.673Z,96744.30
2017-05-15T09:21:24.843Z,96742.68
2017-05-15T09:23:51.027Z,96747.23
2017-05-15T09:26:17.210Z,96741.19
2017-05-15T09:28:43.378Z,96743.47
2017-05-15T09:31:10.305Z,96740.81
2017-05-15T09:33:37.290Z,96741.27
2017-05-15T09:36:03.694Z,96734.59
2017-05-15T09:38:37.219Z,96732.61
2017-05-15T09:41:03.417Z,96724.92
2017-05-15T09:43:30.391Z,96726.80
2017-05-15T09:45:57.303Z,96733.44
2017-05-15T09:48:23.501Z,96723.73
2017-05-15T09:50:49.699Z,96723.64
2017-05-15T09:53:16.606Z,96725.52
2017-05-15T09:55:43.345Z,96721.67
2017-05-15T09:58:10.269Z,96729.19
2017-05-15T10:00:36.476Z,96730.38
2017-05-15T10:03:03.394Z,96725.68
2017-05-15T10:05:29.577Z,96732.02
2017-05-15T10:07:55.778Z,96718.55
2017-05-15T10:10:21.950Z,96719.69
2017-05-15T10:12:48.166Z,96709.30
2017-05-15T10:15:15.121Z,96711.49
2017-05-15T10:17:41.388Z,96715.73
2017-05-15T10:20:07.579Z,96713.42
2017-05-15T10:22:34.522Z,96709.79
2017-05-15T10:25:01.471Z,96706.95
2017-05-15T10:27:28.422Z,96722.51
2017-05-15T10:29:55.333Z,96727.75
2017-05-15T10:32:21.535Z,96727.01
2017-05-15T10:34:47.720Z,96718.95
2017-05-15T10:37:13.912Z,96714.88
2017-05-15T10:39:40.559Z,96729.10
2017-05-15T10:42:06.735Z,96721.93
2017-05-15T10:44:33.717Z,96720.59
2017-05-15T10:47:00.652Z,96718.42
2017-05-15T10:49:27.749Z,96716.91
2017-05-15T10:51:53.947Z,96719.87
2017-05-15T10:54:20.911Z,96711.96
2017-05-15T10:56:47.110Z,96711.94
2017-05-15T10:59:13.377Z,96711.42
2017-05-15T11:01:40.317Z,96712.42
2017-05-15T11:04:07.236Z,96713.27
2017-05-15T11:06:33.415Z,96716.80
2017-05-15T11:08:59.710Z,96709.27
2017-05-15T11:11:25.947Z,96718.14
2017-05-15T11:13:52.117Z,96714.22
2017-05-15T11:16:18.297Z,96710.44
2017-05-15T11:18:44.490Z,96713.21
2017-05-15T11:21:10.673Z,96714.80
2017-05-15T11:23:37.985Z,96715.47
2017-05-15T11:26:04.159Z,96714.83
2017-05-15T11:28:30.367Z,96714.74
2017-05-15T11:30:56.550Z,96718.34
2017-05-15T11:33:23.815Z,96716.05
2017-05-15T11:35:50.730Z,96715.28
2017-05-15T11:38:16.913Z,96708.36
2017-05-15T11:40:43.824Z,96709.79
2017-05-15T11:43:10.009Z,96705.48
2017-05-15T11:45:36.198Z,96711.73
2017-05-15T11:48:03.273Z,96710.97
2017-05-15T11:50:30.189Z,96718.97
2017-05-15T11:52:56.361Z,96720.75
2017-05-15T11:55:23.262Z,96724.73
2017-05-15T11:57:49.559Z,96716.69
2017-05-15T12:00:15.750Z,96720.12
2017-05-15T12:02:42.187Z,96718.09
2017-05-15T12:05:08.353Z,96713.12
2017-05-15T12:07:36.135Z,96700.91
2017-05-15T12:10:02.311Z,96702.78
2017-05-15T12:12:29.250Z,96696.77
2017-05-15T12:14:55.442Z,96705.10
2017-05-15T12:17:22.362Z,96701.98
2017-05-15T12:19:48.551Z,96701.05
2017-05-15T12:22:14.744Z,96702.33
2017-05-15T12:24:41.662Z,96693.23
2017-05-15T12:27:07.842Z,96697.41
2017-05-15T12:29:34.030Z,96693.06
2017-05-15T12:32:00.221Z,96700.83
2017-05-15T12:34:27.138Z,96698.73
2017-05-15T12:36:54.076Z,96697.99
2017-05-15T12:39:20.291Z,96699.84
2017-05-15T12:41:47.230Z,96700.34
2017-05-15T12:44:13.406Z,96703.50
2017-05-15T12:46:45.774Z,96706.27
2017-05-15T12:49:11.952Z,96708.48
2017-05-15T12:51:38.162Z,96717.71
2017-05-15T12:54:05.100Z,96707.84
2017-05-15T12:56:32.062Z,96710.55
2017-05-15T12:58:59.035Z,96720.14
2017-05-15T13:01:26.041Z,96720.23
2017-05-15T13:03:52.331Z,96711.56
2017-05-15T13:06:18.527Z,96713.83
2017-05-15T13:08:45.441Z,96716.50
2017-05-15T13:11:11.627Z,96713.03
2017-05-15T13:13:38.645Z,96710.21
2017-05-15T13:16:05.560Z,96709.05
2017-05-15T13:18:31.762Z,96713.14
2017-05-15T13:20:58.653Z,96704.63
2017-05-15T13:23:24.818Z,96706.75
2017-05-15T13:25:51.054Z,96711.47
2017-05-15T13:28:18.338Z,96704.29
2017-05-15T13:30:45.299Z,96699.92
2017-05-15T13:33:12.285Z,96708.61
2017-05-15T13:35:39.292Z,96711.52
2017-05-15T13:38:05.518Z,96716.74
2017-05-15T13:40:32.443Z,96719.57
2017-05-15T13:42:58.608Z,96724.06
2017-05-15T13:45:24.792Z,96716.94
2017-05-15T13:47:51.703Z,96712.05
2017-05-15T13:50:17.858Z,96709.59
2017-05-15T13:52:44.768Z,96716.63
2017-05-15T13:55:12.662Z,96713.61
2017-05-15T13:57:38.887Z,96718.02
2017-05-15T14:00:05.105Z,96719.95
2017-05-15T14:02:32.027Z,96721.75
2017-05-15T14:04:58.194Z,96718.97
2017-05-15T14:07:25.132Z,96715.77
2017-05-15T14:09:52.061Z,96718.59
2017-05-15T14:12:18.246Z,96720.00
2017-05-15T14:14:44.421Z,96723.27
2017-05-15T14:17:11.554Z,96723.22
2017-05-15T14:19:37.750Z,96725.47
2017-05-15T14:22:04.676Z,96724.83
2017-05-15T14:24:30.909Z,96721.48
2017-05-15T14:26:57.082Z,96726.05
2017-05-15T14:29:23.254Z,96724.19
2017-05-15T14:31:49.434Z,96725.69
2017-05-15T14:34:16.360Z,96740.19
2017-05-15T14:36:43.997Z,96730.02
2017-05-15T14:39:10.175Z,96726.56
2017-05-15T14:41:37.089Z,96722.80
2017-05-15T14:44:03.263Z,96720.92
2017-05-15T14:46:30.181Z,96722.38
2017-05-15T14:48:56.388Z,96720.34
2017-05-15T14:51:22.585Z,96718.44
2017-05-15T14:53:49.485Z,96722.61
2017-05-15T14:56:15.650Z,96708.16
2017-05-15T14:58:42.586Z,96709.34
2017-05-15T15:01:09.529Z,96716.84
2017-05-15T15:03:35.721Z,96713.44
2017-05-15T15:06:01.930Z,96717.00
2017-05-15T15:08:28.834Z,96709.58
2017-05-15T15:10:55.020Z,96714.95
2017-05-15T15:13:21.190Z,96713.05
2017-05-15T15:15:47.382Z,96715.03
2017-05-15T15:18:14.304Z,96709.52
2017-05-15T15:20:40.493Z,96708.56
2017-05-15T15:23:07.441Z,96712.45
2017-05-15T15:25:33.681Z,96705.47
2017-05-15T15:27:59.847Z,96701.74
2017-05-15T15:30:26.028Z,96704.92
2017-05-15T15:32:52.210Z,96704.17
2017-05-15T15:35:18.416Z,96698.34
2017-05-15T15:37:44.694Z,96697.48
2017-05-15T15:40:10.902Z,96699.84
2017-05-15T15:42:37.089Z,96695.33
2017-05-15T15:45:03.318Z,96688.11
2017-05-15T15:47:30.246Z,96688.00
2017-05-15T15:49:56.422Z,96684.24
2017-05-15T15:52:22.829Z,96685.35
2017-05-15T15:54:49.745Z,96691.26
2017-05-15T15:57:16.697Z,96680.16
2017-05-15T15:59:43.618Z,96678.61
2017-05-15T16:02:09.794Z,96684.16
2017-05-15T16:04:36.001Z,96676.77
2017-05-15T16:07:02.213Z,96682.61
2017-05-15T16:09:28.402Z,96683.04
2017-05-15T16:11:54.614Z,96682.30
2017-05-15T16:14:20.787Z,96684.53
2017-05-15T16:16:47.698Z,96682.64
2017-05-15T16:19:13.870Z,96679.83
2017-05-15T16:21:40.111Z,96677.97
2017-05-15T16:24:07.026Z,96679.86
2017-05-15T16:26:37.272Z,96681.18
2017-05-15T16:29:04.250Z,96681.41
2017-05-15T16:31:30.428Z,96680.09
2017-05-15T16:33:56.633Z,96684.98
2017-05-15T16:36:29.657Z,96678.97
2017-05-15T16:38:56.566Z,96688.73
2017-05-15T16:41:22.782Z,96688.66
2017-05-15T16:43:48.966Z,96695.73
2017-05-15T16:46:15.142Z,96716.20
2017-05-15T16:48:41.318Z,96729.34
2017-05-15T16:51:07.489Z,96724.78
2017-05-15T16:53:34.413Z,96732.30
2017-05-15T16:56:00.605Z,96733.77
2017-05-15T16:58:26.791Z,96739.75
2017-05-15T17:00:52.966Z,96747.14
2017-05-15T17:03:19.126Z,96751.94
2017-05-15T17:05:46.036Z,96753.59
2017-05-15T17:08:12.954Z,96752.61
2017-05-15T17:10:39.151Z,96752.55
2017-05-15T17:13:06.153Z,96759.24
2017-05-15T17:15:32.333Z,96754.59
2017-05-15T17:17:58.492Z,96763.09
2017-05-15T17:20:24.733Z,96767.25
2017-05-15T17:22:50.922Z,96765.03
2017-05-15T17:25:17.103Z,96762.97
2017-05-15T17:27:44.767Z,96766.50
2017-05-15T17:30:10.965Z,96768.17
2017-05-15T17:32:37.863Z,96779.09
2017-05-15T17:35:04.163Z,96781.28
2017-05-15T17:37:30.372Z,96776.52
2017-05-15T17:39:56.645Z,96777.05
2017-05-15T17:42:22.865Z,96774.12
2017-05-15T17:44:49.077Z,96767.10
2017-05-15T17:47:15.254Z,96776.58
2017-05-15T17:49:41.466Z,96777.51
2017-05-15T17:52:07.649Z,96784.52
2017-05-15T17:54:33.802Z,96779.45
2017-05-15T17:57:00.719Z,96781.56
2017-05-15T17:59:26.902Z,96784.03
2017-05-15T18:01:53.138Z,96786.83
2017-05-15T18:04:19.314Z,96780.25
2017-05-15T18:06:45.686Z,96779.41
2017-05-15T18:09:12.598Z,96782.84
2017-05-15T18:11:40.258Z,96782.52
2017-05-15T18:14:06.441Z,96791.73
2017-05-15T18:16:33.355Z,96787.66
2017-05-15T18:18:59.548Z,96781.20
2017-05-15T18:21:25.970Z,96786.17
2017-05-15T18:23:52.186Z,96783.68
2017-05-15T18:26:19.114Z,96789.94
2017-05-15T18:28:46.088Z,96796.55
2017-05-15T18:31:13.025Z,96795.05
2017-05-15T18:33:39.308Z,96801.48
2017-05-15T18:36:05.519Z,96803.47
2017-05-15T18:38:31.706Z,96801.44
2017-05-15T18:40:57.878Z,96803.80
2017-05-15T18:43:24.786Z,96805.65
2017-05-15T18:45:51.007Z,96806.30
2017-05-15T18:48:17.252Z,96806.03
2017-05-15T18:50:43.437Z,96801.97
2017-05-15T18:53:09.650Z,96801.92
2017-05-15T18:55:36.589Z,96802.08
2017-05-15T18:58:02.846Z,96801.53
2017-05-15T19:00:29.132Z,96809.38
2017-05-15T19:02:55.317Z,96809.67
2017-05-15T19:05:22.281Z,96817.55
2017-05-15T19:07:48.527Z,96821.44
2017-05-15T19:10:14.702Z,96818.35
2017-05-15T19:12:40.866Z,96826.14
2017-05-15T19:15:07.922Z,96825.78
2017-05-15T19:17:34.837Z,96826.75
2017-05-15T19:20:01.023Z,96827.53
2017-05-15T19:22:27.205Z,96835.91
2017-05-15T19:24:53.381Z,96830.95
2017-05-15T19:27:20.302Z,96834.15
2017-05-15T19:29:47.243Z,96839.27
2017-05-15T19:32:13.482Z,96838.63
2017-05-15T19:34:39.705Z,96839.60
2017-05-15T19:37:07.342Z,96835.16
2017-05-15T19:39:33.517Z,96839.41
2017-05-15T19:41:59.668Z,96838.09
2017-05-15T19:44:26.563Z,96838.87
2017-05-15T19:46:52.714Z,96844.21
2017-05-15T19:49:18.894Z,96844.63
2017-05-15T19:51:45.066Z,96849.86
2017-05-15T19:54:11.224Z,96847.43
2017-05-15T19:56:38.138Z,96847.47
2017-05-15T19:59:04.322Z,96841.77
2017-05-15T20:01:31.246Z,96850.20
2017-05-15T20:03:58.169Z,96848.84
2017-05-15T20:06:24.316Z,96853.52
2017-05-15T20:08:50.514Z,96848.14
2017-05-15T20:11:17.422Z,96845.52
2017-05-15T20:13:44.595Z,96846.72
2017-05-15T20:16:11.764Z,96846.06
2017-05-15T20:18:38.820Z,96842.44
2017-05-15T20:21:05.734Z,96842.11
2017-05-15T20:23:31.902Z,96840.91
2017-05-15T20:25:58.773Z,96844.66
2017-05-15T20:28:24.998Z,96843.74
2017-05-15T20:30:51.138Z,96852.59
2017-05-15T20:33:18.230Z,96844.22
2017-05-15T20:35:45.173Z,96845.63
2017-05-15T20:38:12.509Z,96852.09
2017-05-15T20:40:44.374Z,96855.34
2017-05-15T20:43:13.691Z,96848.70
2017-05-15T20:45:42.998Z,96859.94
2017-05-15T20:48:12.634Z,96857.12
2017-05-15T20:50:38.853Z,96855.00
2017-05-15T20:53:05.046Z,96860.23
2017-05-15T20:55:31.955Z,96860.84
2017-05-15T20:58:02.332Z,96856.73
2017-05-15T21:00:29.511Z,96857.34
2017-05-15T21:02:55.684Z,96864.83
2017-05-15T21:05:22.594Z,96853.67
2017-05-15T21:07:48.764Z,96851.88
2017-05-15T21:10:16.731Z,96854.59
2017-05-15T21:12:42.900Z,96862.63
2017-05-15T21:15:12.416Z,96855.52
2017-05-15T21:17:39.353Z,96858.28
2017-05-15T21:20:05.555Z,96859.25
2017-05-15T21:22:31.742Z,96863.23
2017-05-15T21:25:02.379Z,96872.66
2017-05-15T21:27:31.708Z,96862.36
2017-05-15T21:30:03.226Z,96867.07
2017-05-15T21:32:29.378Z,96862.20
2017-05-15T21:34:55.550Z,96857.92
2017-05-15T21:37:21.706Z,96857.80
2017-05-15T21:39:48.630Z,96866.71
2017-05-15T21:42:14.799Z,96853.97
2017-05-15T21:44:41.026Z,96862.35
2017-05-15T21:47:07.246Z,96859.05
2017-05-15T21:49:34.193Z,96861.41
2017-05-15T21:52:00.361Z,96864.42
2017-05-15T21:54:26.544Z,96861.48
2017-05-15T21:56:52.722Z,96860.01
2017-05-15T21:59:18.897Z,96860.94
2017-05-15T22:01:45.795Z,96862.40
2017-05-15T22:04:12.750Z,96862.14
2017-05-15T22:06:39.669Z,96864.42
2017-05-15T22:09:05.904Z,96872.55
2017-05-15T22:11:32.375Z,96873.34
2017-05-15T22:13:59.283Z,96876.41
2017-05-15T22:16:25.438Z,96874.29
2017-05-15T22:18:52.485Z,96878.31
2017-05-15T22:21:19.400Z,96876.41
2017-05-15T22:23:46.311Z,96881.52
2017-05-15T22:26:12.466Z,96882.75
2017-05-15T22:28:39.406Z,96879.17
2017-05-15T22:31:05.550Z,96876.98
2017-05-15T22:33:31.749Z,96881.16
2017-05-15T22:35:58.661Z,96880.11
2017-05-15T22:38:24.833Z,96877.80
2017-05-15T22:40:51.798Z,96880.27
2017-05-15T22:43:18.007Z,96877.16
2017-05-15T22:45:44.889Z,96875.42
2017-05-15T22:48:11.037Z,96879.16
2017-05-15T22:50:37.910Z,96878.19
2017-05-15T22:53:05.560Z,96872.86
2017-05-15T22:55:31.726Z,96877.20
2017-05-15T22:57:57.878Z,96866.98
2017-05-15T23:00:24.788Z,96870.98
2017-05-15T23:02:50.930Z,96865.83
2017-05-15T23:05:17.102Z,96874.19
2017-05-15T23:07:43.242Z,96870.73
2017-05-15T23:10:09.399Z,96872.73
2017-05-15T23:12:35.586Z,96874.44
2017-05-15T23:15:02.474Z,96870.86
2017-05-15T23:17:29.390Z,96869.37
2017-05-15T23:19:56.287Z,96866.23
2017-05-15T23:22:23.178Z,96864.84
2017-05-15T23:24:50.076Z,96857.97
2017-05-15T23:27:16.250Z,96860.59
2017-05-15T23:29:43.326Z,96851.41
2017-05-15T23:32:10.235Z,96853.18
2017-05-15T23:34:36.425Z,96855.17
2017-05-15T23:37:02.590Z,96853.87
2017-05-15T23:39:28.780Z,96855.78
2017-05-15T23:41:55.724Z,96851.59
2017-05-15T23:44:23.613Z,96852.86
2017-05-15T23:46:50.530Z,96851.72
2017-05-15T23:49:16.742Z,96847.25
2017-05-15T23:51:42.942Z,96848.77
2017-05-15T23:54:09.847Z,96845.35
2017-05-15T23:56:36.742Z,96851.97
2017-05-15T23:59:02.937Z,96849.31
